Terminal Aerodrome Forecast
Issued by NWS Jackson, MS

Current Version | Previous Version | Text Only | Print | Product List | Glossary On
Versions: 1 2 3 4 5 6 7 8 9 10 11 12 13
000
FTUS44 KJAN 190521
TAFHBG
TAF
KHBG 190521Z 1906/2006 30003KT P6SM FEW040 SCT120 BKN250
     FM191100 00000KT 5SM BR FEW050 FEW250
     FM191400 31005KT P6SM VCTS SCT040CB BKN200=

USA.gov is the U.S. government's official web portal to all federal, state and local government web resources and services.